sensor_id;sensor_type;location;lat;lon;timestamp;P1;durP1;ratioP1;P2;durP2;ratioP2
74648;SDS011;63168;49.280;7.214;2023-04-24T00:00:16;3.77;;;2.00;;
74648;SDS011;63168;49.280;7.214;2023-04-24T00:02:42;4.40;;;1.85;;
74648;SDS011;63168;49.280;7.214;2023-04-24T00:05:12;4.55;;;2.10;;
74648;SDS011;63168;49.280;7.214;2023-04-24T00:07:40;4.20;;;1.80;;
74648;SDS011;63168;49.280;7.214;2023-04-24T00:10:05;4.07;;;1.90;;
74648;SDS011;63168;49.280;7.214;2023-04-24T00:12:32;3.92;;;1.85;;
74648;SDS011;63168;49.280;7.214;2023-04-24T00:14:57;3.60;;;1.73;;
74648;SDS011;63168;49.280;7.214;2023-04-24T00:17:23;3.33;;;2.00;;
74648;SDS011;63168;49.280;7.214;2023-04-24T00:19:48;3.77;;;1.83;;
74648;SDS011;63168;49.280;7.214;2023-04-24T00:22:16;4.28;;;1.85;;
74648;SDS011;63168;49.280;7.214;2023-04-24T00:24:42;3.80;;;1.90;;
74648;SDS011;63168;49.280;7.214;2023-04-24T00:27:08;3.10;;;1.60;;
74648;SDS011;63168;49.280;7.214;2023-04-24T00:29:34;3.93;;;1.83;;
74648;SDS011;63168;49.280;7.214;2023-04-24T00:31:59;3.70;;;1.80;;
74648;SDS011;63168;49.280;7.214;2023-04-24T00:34:25;3.90;;;1.70;;
74648;SDS011;63168;49.280;7.214;2023-04-24T00:36:50;4.83;;;2.00;;
74648;SDS011;63168;49.280;7.214;2023-04-24T00:39:17;4.30;;;1.90;;
74648;SDS011;63168;49.280;7.214;2023-04-24T00:41:43;3.57;;;1.97;;
74648;SDS011;63168;49.280;7.214;2023-04-24T00:44:10;3.83;;;1.90;;
74648;SDS011;63168;49.280;7.214;2023-04-24T00:46:36;3.90;;;1.63;;
74648;SDS011;63168;49.280;7.214;2023-04-24T00:49:01;3.57;;;1.70;;
74648;SDS011;63168;49.280;7.214;2023-04-24T00:51:27;3.60;;;2.10;;
74648;SDS011;63168;49.280;7.214;2023-04-24T00:53:53;3.78;;;1.83;;
74648;SDS011;63168;49.280;7.214;2023-04-24T00:56:18;3.93;;;1.67;;
74648;SDS011;63168;49.280;7.214;2023-04-24T00:58:46;3.63;;;1.70;;
74648;SDS011;63168;49.280;7.214;2023-04-24T01:01:12;4.72;;;1.80;;
74648;SDS011;63168;49.280;7.214;2023-04-24T01:03:38;3.33;;;1.43;;
74648;SDS011;63168;49.280;7.214;2023-04-24T01:06:04;3.80;;;1.75;;
74648;SDS011;63168;49.280;7.214;2023-04-24T01:08:30;3.13;;;1.75;;
74648;SDS011;63168;49.280;7.214;2023-04-24T01:10:56;3.28;;;1.70;;
74648;SDS011;63168;49.280;7.214;2023-04-24T01:13:23;4.03;;;1.58;;
74648;SDS011;63168;49.280;7.214;2023-04-24T01:15:50;3.50;;;1.70;;
74648;SDS011;63168;49.280;7.214;2023-04-24T01:18:16;3.75;;;1.50;;
74648;SDS011;63168;49.280;7.214;2023-04-24T01:20:41;3.60;;;1.53;;
74648;SDS011;63168;49.280;7.214;2023-04-24T01:23:10;3.22;;;1.55;;
74648;SDS011;63168;49.280;7.214;2023-04-24T01:25:36;3.50;;;1.50;;
74648;SDS011;63168;49.280;7.214;2023-04-24T01:28:02;3.17;;;1.60;;
74648;SDS011;63168;49.280;7.214;2023-04-24T01:30:28;3.45;;;1.50;;
74648;SDS011;63168;49.280;7.214;2023-04-24T01:32:55;3.22;;;1.50;;
74648;SDS011;63168;49.280;7.214;2023-04-24T01:35:21;3.45;;;1.50;;
74648;SDS011;63168;49.280;7.214;2023-04-24T01:37:46;2.53;;;1.33;;
74648;SDS011;63168;49.280;7.214;2023-04-24T01:40:13;3.63;;;1.63;;
74648;SDS011;63168;49.280;7.214;2023-04-24T01:42:40;3.53;;;1.80;;
74648;SDS011;63168;49.280;7.214;2023-04-24T01:45:06;3.38;;;1.60;;
74648;SDS011;63168;49.280;7.214;2023-04-24T01:47:35;3.50;;;1.70;;
74648;SDS011;63168;49.280;7.214;2023-04-24T01:50:01;2.80;;;1.60;;
74648;SDS011;63168;49.280;7.214;2023-04-24T01:52:26;3.43;;;1.60;;
74648;SDS011;63168;49.280;7.214;2023-04-24T01:54:53;3.37;;;1.43;;
74648;SDS011;63168;49.280;7.214;2023-04-24T01:57:22;4.05;;;1.60;;
74648;SDS011;63168;49.280;7.214;2023-04-24T01:59:47;2.67;;;1.38;;
74648;SDS011;63168;49.280;7.214;2023-04-24T02:02:13;3.63;;;1.57;;
74648;SDS011;63168;49.280;7.214;2023-04-24T02:04:39;3.00;;;1.40;;
74648;SDS011;63168;49.280;7.214;2023-04-24T02:07:04;3.73;;;1.50;;
74648;SDS011;63168;49.280;7.214;2023-04-24T02:09:30;3.20;;;1.50;;
74648;SDS011;63168;49.280;7.214;2023-04-24T02:11:55;3.23;;;1.40;;
74648;SDS011;63168;49.280;7.214;2023-04-24T02:14:22;3.25;;;1.60;;
74648;SDS011;63168;49.280;7.214;2023-04-24T02:16:48;3.65;;;1.70;;
74648;SDS011;63168;49.280;7.214;2023-04-24T02:19:13;2.63;;;1.23;;
74648;SDS011;63168;49.280;7.214;2023-04-24T02:21:39;3.10;;;1.40;;
74648;SDS011;63168;49.280;7.214;2023-04-24T02:24:04;3.27;;;1.50;;
74648;SDS011;63168;49.280;7.214;2023-04-24T02:26:29;2.83;;;1.27;;
74648;SDS011;63168;49.280;7.214;2023-04-24T02:28:56;2.92;;;1.33;;
74648;SDS011;63168;49.280;7.214;2023-04-24T02:31:23;2.78;;;1.35;;
74648;SDS011;63168;49.280;7.214;2023-04-24T02:33:48;3.17;;;1.40;;
74648;SDS011;63168;49.280;7.214;2023-04-24T02:36:14;2.73;;;1.30;;
74648;SDS011;63168;49.280;7.214;2023-04-24T02:38:39;2.55;;;1.17;;
74648;SDS011;63168;49.280;7.214;2023-04-24T02:41:05;3.00;;;1.50;;
74648;SDS011;63168;49.280;7.214;2023-04-24T02:43:31;3.15;;;1.40;;
74648;SDS011;63168;49.280;7.214;2023-04-24T02:45:57;2.47;;;1.38;;
74648;SDS011;63168;49.280;7.214;2023-04-24T02:48:23;2.83;;;1.53;;
74648;SDS011;63168;49.280;7.214;2023-04-24T02:50:49;2.67;;;1.37;;
74648;SDS011;63168;49.280;7.214;2023-04-24T02:53:15;2.00;;;1.13;;
74648;SDS011;63168;49.280;7.214;2023-04-24T02:55:40;3.00;;;1.40;;
74648;SDS011;63168;49.280;7.214;2023-04-24T02:58:06;3.00;;;1.23;;
74648;SDS011;63168;49.280;7.214;2023-04-24T03:00:31;2.37;;;1.10;;
74648;SDS011;63168;49.280;7.214;2023-04-24T03:02:57;2.63;;;1.50;;
74648;SDS011;63168;49.280;7.214;2023-04-24T03:05:23;2.47;;;1.27;;
74648;SDS011;63168;49.280;7.214;2023-04-24T03:07:49;3.33;;;1.50;;
74648;SDS011;63168;49.280;7.214;2023-04-24T03:10:14;2.70;;;1.63;;
74648;SDS011;63168;49.280;7.214;2023-04-24T03:12:40;2.90;;;1.20;;
74648;SDS011;63168;49.280;7.214;2023-04-24T03:15:06;2.77;;;1.30;;
74648;SDS011;63168;49.280;7.214;2023-04-24T03:17:32;3.30;;;1.40;;
74648;SDS011;63168;49.280;7.214;2023-04-24T03:19:57;2.42;;;1.20;;
74648;SDS011;63168;49.280;7.214;2023-04-24T03:22:24;2.43;;;1.23;;
74648;SDS011;63168;49.280;7.214;2023-04-24T03:24:49;2.47;;;1.20;;
74648;SDS011;63168;49.280;7.214;2023-04-24T03:27:15;2.70;;;1.13;;
74648;SDS011;63168;49.280;7.214;2023-04-24T03:29:40;3.70;;;1.30;;
74648;SDS011;63168;49.280;7.214;2023-04-24T03:32:06;10.38;;;3.47;;
74648;SDS011;63168;49.280;7.214;2023-04-24T03:34:31;9.17;;;3.07;;
74648;SDS011;63168;49.280;7.214;2023-04-24T03:36:56;6.73;;;2.10;;
74648;SDS011;63168;49.280;7.214;2023-04-24T03:39:23;4.03;;;1.90;;
74648;SDS011;63168;49.280;7.214;2023-04-24T03:41:50;4.40;;;2.13;;
74648;SDS011;63168;49.280;7.214;2023-04-24T03:44:15;5.13;;;2.00;;
74648;SDS011;63168;49.280;7.214;2023-04-24T03:46:40;5.83;;;2.13;;
74648;SDS011;63168;49.280;7.214;2023-04-24T03:49:06;5.67;;;1.87;;
74648;SDS011;63168;49.280;7.214;2023-04-24T03:51:31;4.70;;;1.70;;
74648;SDS011;63168;49.280;7.214;2023-04-24T03:53:57;5.22;;;1.60;;
74648;SDS011;63168;49.280;7.214;2023-04-24T03:56:23;4.37;;;1.60;;
74648;SDS011;63168;49.280;7.214;2023-04-24T03:58:49;3.10;;;1.63;;
74648;SDS011;63168;49.280;7.214;2023-04-24T04:01:14;3.17;;;1.50;;
74648;SDS011;63168;49.280;7.214;2023-04-24T04:03:41;4.93;;;1.67;;
74648;SDS011;63168;49.280;7.214;2023-04-24T04:06:06;3.50;;;1.40;;
74648;SDS011;63168;49.280;7.214;2023-04-24T04:08:32;4.15;;;1.70;;
74648;SDS011;63168;49.280;7.214;2023-04-24T04:10:57;3.60;;;1.47;;
74648;SDS011;63168;49.280;7.214;2023-04-24T04:13:24;3.53;;;1.40;;
74648;SDS011;63168;49.280;7.214;2023-04-24T04:15:49;3.05;;;1.55;;
74648;SDS011;63168;49.280;7.214;2023-04-24T04:18:15;2.85;;;1.40;;
74648;SDS011;63168;49.280;7.214;2023-04-24T04:20:40;2.60;;;1.30;;
74648;SDS011;63168;49.280;7.214;2023-04-24T04:23:06;3.20;;;1.40;;
74648;SDS011;63168;49.280;7.214;2023-04-24T04:25:31;3.27;;;1.70;;
74648;SDS011;63168;49.280;7.214;2023-04-24T04:27:57;2.97;;;1.42;;
74648;SDS011;63168;49.280;7.214;2023-04-24T04:30:25;2.80;;;1.40;;
74648;SDS011;63168;49.280;7.214;2023-04-24T04:32:51;3.08;;;1.50;;
74648;SDS011;63168;49.280;7.214;2023-04-24T04:35:16;2.97;;;1.40;;
74648;SDS011;63168;49.280;7.214;2023-04-24T04:37:42;2.70;;;1.40;;
74648;SDS011;63168;49.280;7.214;2023-04-24T04:40:08;3.92;;;1.52;;
74648;SDS011;63168;49.280;7.214;2023-04-24T04:42:37;3.15;;;1.60;;
74648;SDS011;63168;49.280;7.214;2023-04-24T04:45:05;2.42;;;1.20;;
74648;SDS011;63168;49.280;7.214;2023-04-24T04:47:35;3.00;;;1.40;;
74648;SDS011;63168;49.280;7.214;2023-04-24T04:50:00;3.28;;;1.30;;
74648;SDS011;63168;49.280;7.214;2023-04-24T04:52:26;3.37;;;1.50;;
74648;SDS011;63168;49.280;7.214;2023-04-24T04:54:52;3.30;;;1.45;;
74648;SDS011;63168;49.280;7.214;2023-04-24T04:57:17;2.50;;;1.40;;
74648;SDS011;63168;49.280;7.214;2023-04-24T04:59:42;3.07;;;1.40;;
74648;SDS011;63168;49.280;7.214;2023-04-24T05:02:08;3.03;;;1.30;;
74648;SDS011;63168;49.280;7.214;2023-04-24T05:04:35;3.78;;;1.45;;
74648;SDS011;63168;49.280;7.214;2023-04-24T05:07:01;2.78;;;1.38;;
74648;SDS011;63168;49.280;7.214;2023-04-24T05:09:26;2.50;;;1.20;;
74648;SDS011;63168;49.280;7.214;2023-04-24T05:11:53;2.83;;;1.40;;
74648;SDS011;63168;49.280;7.214;2023-04-24T05:14:19;2.65;;;1.20;;
74648;SDS011;63168;49.280;7.214;2023-04-24T05:16:44;2.90;;;1.20;;
74648;SDS011;63168;49.280;7.214;2023-04-24T05:19:10;2.67;;;1.40;;
74648;SDS011;63168;49.280;7.214;2023-04-24T05:21:38;2.30;;;1.10;;
74648;SDS011;63168;49.280;7.214;2023-04-24T05:24:04;3.03;;;1.30;;
74648;SDS011;63168;49.280;7.214;2023-04-24T05:26:30;2.70;;;1.40;;
74648;SDS011;63168;49.280;7.214;2023-04-24T05:28:55;3.30;;;1.30;;
74648;SDS011;63168;49.280;7.214;2023-04-24T05:31:20;2.43;;;1.30;;
74648;SDS011;63168;49.280;7.214;2023-04-24T05:33:46;2.47;;;1.33;;
74648;SDS011;63168;49.280;7.214;2023-04-24T05:36:11;2.22;;;1.25;;
74648;SDS011;63168;49.280;7.214;2023-04-24T05:38:39;3.95;;;1.52;;
74648;SDS011;63168;49.280;7.214;2023-04-24T05:41:04;2.45;;;1.20;;
74648;SDS011;63168;49.280;7.214;2023-04-24T05:43:30;2.95;;;1.30;;
74648;SDS011;63168;49.280;7.214;2023-04-24T05:45:55;2.73;;;1.47;;
74648;SDS011;63168;49.280;7.214;2023-04-24T05:48:20;2.60;;;1.10;;
74648;SDS011;63168;49.280;7.214;2023-04-24T05:50:47;2.92;;;1.27;;
74648;SDS011;63168;49.280;7.214;2023-04-24T05:53:13;2.47;;;1.23;;
74648;SDS011;63168;49.280;7.214;2023-04-24T05:55:39;2.80;;;1.25;;
74648;SDS011;63168;49.280;7.214;2023-04-24T05:58:05;2.63;;;1.30;;
74648;SDS011;63168;49.280;7.214;2023-04-24T06:00:31;1.95;;;1.23;;
74648;SDS011;63168;49.280;7.214;2023-04-24T06:02:56;2.77;;;1.27;;
74648;SDS011;63168;49.280;7.214;2023-04-24T06:05:22;2.58;;;1.20;;
74648;SDS011;63168;49.280;7.214;2023-04-24T06:07:47;2.60;;;1.30;;
74648;SDS011;63168;49.280;7.214;2023-04-24T06:10:13;2.10;;;1.13;;
74648;SDS011;63168;49.280;7.214;2023-04-24T06:12:40;2.37;;;1.20;;
74648;SDS011;63168;49.280;7.214;2023-04-24T06:15:06;1.65;;;1.00;;
74648;SDS011;63168;49.280;7.214;2023-04-24T06:17:32;2.50;;;1.20;;
74648;SDS011;63168;49.280;7.214;2023-04-24T06:19:57;3.03;;;1.10;;
74648;SDS011;63168;49.280;7.214;2023-04-24T06:22:23;2.55;;;1.30;;
74648;SDS011;63168;49.280;7.214;2023-04-24T06:24:48;2.00;;;1.20;;
74648;SDS011;63168;49.280;7.214;2023-04-24T06:27:14;2.25;;;1.20;;
74648;SDS011;63168;49.280;7.214;2023-04-24T06:29:41;3.60;;;1.40;;
74648;SDS011;63168;49.280;7.214;2023-04-24T06:32:06;1.93;;;1.07;;
74648;SDS011;63168;49.280;7.214;2023-04-24T06:34:32;1.63;;;1.03;;
74648;SDS011;63168;49.280;7.214;2023-04-24T06:36:59;2.45;;;1.17;;
74648;SDS011;63168;49.280;7.214;2023-04-24T06:39:24;2.30;;;1.17;;
74648;SDS011;63168;49.280;7.214;2023-04-24T06:41:49;2.73;;;1.23;;
74648;SDS011;63168;49.280;7.214;2023-04-24T06:44:15;2.23;;;1.10;;
74648;SDS011;63168;49.280;7.214;2023-04-24T06:46:43;2.28;;;1.10;;
74648;SDS011;63168;49.280;7.214;2023-04-24T06:49:08;2.60;;;1.27;;
74648;SDS011;63168;49.280;7.214;2023-04-24T06:51:34;3.20;;;1.23;;
74648;SDS011;63168;49.280;7.214;2023-04-24T06:53:59;2.50;;;1.10;;
74648;SDS011;63168;49.280;7.214;2023-04-24T06:56:25;2.60;;;1.20;;
74648;SDS011;63168;49.280;7.214;2023-04-24T06:58:50;2.37;;;1.10;;
74648;SDS011;63168;49.280;7.214;2023-04-24T07:01:16;2.00;;;1.00;;
74648;SDS011;63168;49.280;7.214;2023-04-24T07:03:43;2.13;;;1.10;;
74648;SDS011;63168;49.280;7.214;2023-04-24T07:06:09;2.40;;;1.02;;
74648;SDS011;63168;49.280;7.214;2023-04-24T07:08:36;2.50;;;1.20;;
74648;SDS011;63168;49.280;7.214;2023-04-24T07:11:01;2.20;;;1.17;;
74648;SDS011;63168;49.280;7.214;2023-04-24T07:13:27;2.72;;;1.10;;
74648;SDS011;63168;49.280;7.214;2023-04-24T07:15:53;2.90;;;1.20;;
74648;SDS011;63168;49.280;7.214;2023-04-24T07:18:20;2.00;;;1.10;;
74648;SDS011;63168;49.280;7.214;2023-04-24T07:20:46;2.35;;;1.20;;
74648;SDS011;63168;49.280;7.214;2023-04-24T07:23:12;2.23;;;1.10;;
74648;SDS011;63168;49.280;7.214;2023-04-24T07:25:37;2.33;;;1.05;;
74648;SDS011;63168;49.280;7.214;2023-04-24T07:28:03;2.27;;;1.10;;
74648;SDS011;63168;49.280;7.214;2023-04-24T07:30:29;1.92;;;1.10;;
74648;SDS011;63168;49.280;7.214;2023-04-24T07:32:55;1.67;;;0.93;;
74648;SDS011;63168;49.280;7.214;2023-04-24T07:35:20;3.13;;;1.30;;
74648;SDS011;63168;49.280;7.214;2023-04-24T07:37:47;2.27;;;1.13;;
74648;SDS011;63168;49.280;7.214;2023-04-24T07:40:13;2.13;;;1.00;;
74648;SDS011;63168;49.280;7.214;2023-04-24T07:42:38;2.15;;;1.10;;
74648;SDS011;63168;49.280;7.214;2023-04-24T07:45:04;1.97;;;1.00;;
74648;SDS011;63168;49.280;7.214;2023-04-24T07:47:31;2.05;;;1.10;;
74648;SDS011;63168;49.280;7.214;2023-04-24T07:49:57;1.80;;;1.00;;
74648;SDS011;63168;49.280;7.214;2023-04-24T07:52:22;2.47;;;1.10;;
74648;SDS011;63168;49.280;7.214;2023-04-24T07:54:49;1.88;;;1.00;;
74648;SDS011;63168;49.280;7.214;2023-04-24T07:57:15;1.87;;;1.10;;
74648;SDS011;63168;49.280;7.214;2023-04-24T07:59:40;2.85;;;1.30;;
74648;SDS011;63168;49.280;7.214;2023-04-24T08:02:06;2.00;;;1.10;;
74648;SDS011;63168;49.280;7.214;2023-04-24T08:04:31;2.30;;;1.10;;
74648;SDS011;63168;49.280;7.214;2023-04-24T08:06:57;2.35;;;1.10;;
74648;SDS011;63168;49.280;7.214;2023-04-24T08:09:22;1.83;;;1.00;;
74648;SDS011;63168;49.280;7.214;2023-04-24T08:11:49;1.97;;;1.03;;
74648;SDS011;63168;49.280;7.214;2023-04-24T08:14:15;1.63;;;0.90;;
74648;SDS011;63168;49.280;7.214;2023-04-24T08:16:40;1.88;;;1.00;;
74648;SDS011;63168;49.280;7.214;2023-04-24T08:19:06;2.80;;;1.20;;
74648;SDS011;63168;49.280;7.214;2023-04-24T08:21:31;1.70;;;0.90;;
74648;SDS011;63168;49.280;7.214;2023-04-24T08:23:57;2.08;;;1.00;;
74648;SDS011;63168;49.280;7.214;2023-04-24T08:26:23;1.88;;;1.13;;
74648;SDS011;63168;49.280;7.214;2023-04-24T08:28:50;2.47;;;0.93;;
74648;SDS011;63168;49.280;7.214;2023-04-24T08:31:15;2.33;;;1.10;;
74648;SDS011;63168;49.280;7.214;2023-04-24T08:33:41;2.35;;;1.20;;
74648;SDS011;63168;49.280;7.214;2023-04-24T08:36:06;1.87;;;1.00;;
74648;SDS011;63168;49.280;7.214;2023-04-24T08:38:32;1.77;;;0.93;;
74648;SDS011;63168;49.280;7.214;2023-04-24T08:40:59;1.70;;;0.88;;
74648;SDS011;63168;49.280;7.214;2023-04-24T08:43:26;1.73;;;1.00;;
74648;SDS011;63168;49.280;7.214;2023-04-24T08:45:54;2.08;;;0.98;;
74648;SDS011;63168;49.280;7.214;2023-04-24T08:48:21;1.75;;;1.00;;
74648;SDS011;63168;49.280;7.214;2023-04-24T08:50:47;2.53;;;1.10;;
74648;SDS011;63168;49.280;7.214;2023-04-24T08:53:15;1.90;;;1.13;;
74648;SDS011;63168;49.280;7.214;2023-04-24T08:55:40;2.83;;;1.17;;
74648;SDS011;63168;49.280;7.214;2023-04-24T08:58:08;1.50;;;0.90;;
74648;SDS011;63168;49.280;7.214;2023-04-24T09:00:34;2.00;;;1.10;;
74648;SDS011;63168;49.280;7.214;2023-04-24T09:03:01;1.88;;;0.90;;
74648;SDS011;63168;49.280;7.214;2023-04-24T09:05:28;2.30;;;1.10;;
74648;SDS011;63168;49.280;7.214;2023-04-24T09:07:54;2.00;;;0.98;;
74648;SDS011;63168;49.280;7.214;2023-04-24T09:10:21;1.70;;;0.90;;
74648;SDS011;63168;49.280;7.214;2023-04-24T09:12:48;1.98;;;1.00;;
74648;SDS011;63168;49.280;7.214;2023-04-24T09:15:15;2.00;;;1.00;;
74648;SDS011;63168;49.280;7.214;2023-04-24T09:17:41;1.67;;;1.00;;
74648;SDS011;63168;49.280;7.214;2023-04-24T09:20:08;1.67;;;1.00;;
74648;SDS011;63168;49.280;7.214;2023-04-24T09:22:34;1.90;;;0.93;;
74648;SDS011;63168;49.280;7.214;2023-04-24T09:25:01;2.10;;;0.90;;
74648;SDS011;63168;49.280;7.214;2023-04-24T09:27:28;2.05;;;0.98;;
74648;SDS011;63168;49.280;7.214;2023-04-24T09:29:54;1.77;;;1.00;;
74648;SDS011;63168;49.280;7.214;2023-04-24T09:32:20;1.70;;;1.00;;
74648;SDS011;63168;49.280;7.214;2023-04-24T09:34:47;1.48;;;0.80;;
74648;SDS011;63168;49.280;7.214;2023-04-24T09:37:16;1.70;;;0.95;;
74648;SDS011;63168;49.280;7.214;2023-04-24T09:40:06;1.85;;;1.08;;
74648;SDS011;63168;49.280;7.214;2023-04-24T09:42:32;1.90;;;1.07;;
74648;SDS011;63168;49.280;7.214;2023-04-24T09:44:58;1.75;;;0.90;;
74648;SDS011;63168;49.280;7.214;2023-04-24T09:47:24;1.70;;;0.90;;
74648;SDS011;63168;49.280;7.214;2023-04-24T09:49:49;1.60;;;1.10;;
74648;SDS011;63168;49.280;7.214;2023-04-24T09:52:15;1.70;;;0.90;;
74648;SDS011;63168;49.280;7.214;2023-04-24T09:54:41;1.80;;;0.90;;
74648;SDS011;63168;49.280;7.214;2023-04-24T09:57:07;1.97;;;0.90;;
74648;SDS011;63168;49.280;7.214;2023-04-24T09:59:33;1.98;;;1.10;;
74648;SDS011;63168;49.280;7.214;2023-04-24T10:01:58;1.97;;;1.07;;
74648;SDS011;63168;49.280;7.214;2023-04-24T10:04:26;1.80;;;0.90;;
74648;SDS011;63168;49.280;7.214;2023-04-24T10:06:53;2.10;;;1.00;;
74648;SDS011;63168;49.280;7.214;2023-04-24T10:09:22;1.93;;;0.93;;
74648;SDS011;63168;49.280;7.214;2023-04-24T10:11:49;1.60;;;0.90;;
74648;SDS011;63168;49.280;7.214;2023-04-24T10:14:16;1.70;;;0.90;;
74648;SDS011;63168;49.280;7.214;2023-04-24T10:16:43;1.63;;;0.95;;
74648;SDS011;63168;49.280;7.214;2023-04-24T10:19:09;1.50;;;0.80;;
74648;SDS011;63168;49.280;7.214;2023-04-24T10:21:38;1.77;;;1.10;;
74648;SDS011;63168;49.280;7.214;2023-04-24T10:24:07;1.63;;;0.90;;
74648;SDS011;63168;49.280;7.214;2023-04-24T10:26:34;2.07;;;1.00;;
74648;SDS011;63168;49.280;7.214;2023-04-24T10:29:02;2.17;;;1.00;;
74648;SDS011;63168;49.280;7.214;2023-04-24T10:31:31;1.52;;;0.90;;
74648;SDS011;63168;49.280;7.214;2023-04-24T10:33:58;1.45;;;0.80;;
74648;SDS011;63168;49.280;7.214;2023-04-24T10:36:26;1.55;;;0.90;;
74648;SDS011;63168;49.280;7.214;2023-04-24T10:38:54;1.70;;;1.00;;
74648;SDS011;63168;49.280;7.214;2023-04-24T10:41:21;1.35;;;0.80;;
74648;SDS011;63168;49.280;7.214;2023-04-24T10:44:04;1.73;;;0.97;;
74648;SDS011;63168;49.280;7.214;2023-04-24T10:46:31;1.70;;;0.93;;
74648;SDS011;63168;49.280;7.214;2023-04-24T10:48:56;1.90;;;0.90;;
74648;SDS011;63168;49.280;7.214;2023-04-24T10:51:23;1.42;;;0.70;;
74648;SDS011;63168;49.280;7.214;2023-04-24T10:53:50;1.30;;;0.85;;
74648;SDS011;63168;49.280;7.214;2023-04-24T10:56:16;1.67;;;0.90;;
74648;SDS011;63168;49.280;7.214;2023-04-24T10:58:43;1.48;;;0.88;;
74648;SDS011;63168;49.280;7.214;2023-04-24T11:01:24;1.53;;;0.80;;
74648;SDS011;63168;49.280;7.214;2023-04-24T11:03:54;1.60;;;0.90;;
74648;SDS011;63168;49.280;7.214;2023-04-24T11:06:26;2.33;;;1.20;;
74648;SDS011;63168;49.280;7.214;2023-04-24T11:08:58;1.80;;;0.80;;
74648;SDS011;63168;49.280;7.214;2023-04-24T11:11:28;1.30;;;0.90;;
74648;SDS011;63168;49.280;7.214;2023-04-24T11:14:04;1.85;;;1.05;;
74648;SDS011;63168;49.280;7.214;2023-04-24T11:16:33;1.63;;;0.90;;
74648;SDS011;63168;49.280;7.214;2023-04-24T11:19:00;1.95;;;1.10;;
74648;SDS011;63168;49.280;7.214;2023-04-24T11:21:30;1.70;;;0.93;;
74648;SDS011;63168;49.280;7.214;2023-04-24T11:23:58;2.22;;;0.98;;
74648;SDS011;63168;49.280;7.214;2023-04-24T11:26:23;1.60;;;1.00;;
74648;SDS011;63168;49.280;7.214;2023-04-24T11:29:05;1.70;;;0.98;;
74648;SDS011;63168;49.280;7.214;2023-04-24T11:31:37;1.38;;;0.82;;
74648;SDS011;63168;49.280;7.214;2023-04-24T11:34:10;1.70;;;1.10;;
74648;SDS011;63168;49.280;7.214;2023-04-24T11:36:38;2.00;;;1.10;;
74648;SDS011;63168;49.280;7.214;2023-04-24T11:39:03;1.77;;;0.80;;
74648;SDS011;63168;49.280;7.214;2023-04-24T11:41:29;1.35;;;0.90;;
74648;SDS011;63168;49.280;7.214;2023-04-24T11:43:55;1.52;;;0.90;;
74648;SDS011;63168;49.280;7.214;2023-04-24T11:46:21;1.60;;;0.80;;
74648;SDS011;63168;49.280;7.214;2023-04-24T11:48:48;1.60;;;1.00;;
74648;SDS011;63168;49.280;7.214;2023-04-24T11:51:13;2.15;;;1.10;;
74648;SDS011;63168;49.280;7.214;2023-04-24T11:53:39;1.50;;;0.90;;
74648;SDS011;63168;49.280;7.214;2023-04-24T11:56:05;1.50;;;0.97;;
74648;SDS011;63168;49.280;7.214;2023-04-24T11:58:34;1.95;;;0.98;;
74648;SDS011;63168;49.280;7.214;2023-04-24T12:01:00;1.27;;;0.80;;
74648;SDS011;63168;49.280;7.214;2023-04-24T12:03:26;1.88;;;0.80;;
74648;SDS011;63168;49.280;7.214;2023-04-24T12:05:53;1.95;;;0.98;;
74648;SDS011;63168;49.280;7.214;2023-04-24T12:08:31;1.50;;;0.77;;
74648;SDS011;63168;49.280;7.214;2023-04-24T12:10:57;1.35;;;0.80;;
74648;SDS011;63168;49.280;7.214;2023-04-24T12:13:25;1.70;;;0.90;;
74648;SDS011;63168;49.280;7.214;2023-04-24T12:15:50;1.80;;;1.00;;
74648;SDS011;63168;49.280;7.214;2023-04-24T12:18:16;1.70;;;0.90;;
74648;SDS011;63168;49.280;7.214;2023-04-24T12:20:42;1.80;;;0.95;;
74648;SDS011;63168;49.280;7.214;2023-04-24T12:23:08;1.80;;;1.00;;
74648;SDS011;63168;49.280;7.214;2023-04-24T12:25:34;1.60;;;0.90;;
74648;SDS011;63168;49.280;7.214;2023-04-24T12:28:08;1.77;;;0.90;;
74648;SDS011;63168;49.280;7.214;2023-04-24T12:30:39;1.38;;;0.80;;
74648;SDS011;63168;49.280;7.214;2023-04-24T12:33:06;1.70;;;0.90;;
74648;SDS011;63168;49.280;7.214;2023-04-24T12:35:32;1.67;;;0.97;;
74648;SDS011;63168;49.280;7.214;2023-04-24T12:38:05;1.48;;;1.00;;
74648;SDS011;63168;49.280;7.214;2023-04-24T12:40:32;1.92;;;1.00;;
74648;SDS011;63168;49.280;7.214;2023-04-24T12:42:58;1.42;;;0.90;;
74648;SDS011;63168;49.280;7.214;2023-04-24T12:45:23;1.87;;;0.93;;
74648;SDS011;63168;49.280;7.214;2023-04-24T12:47:50;1.65;;;0.90;;
74648;SDS011;63168;49.280;7.214;2023-04-24T12:50:15;1.70;;;0.90;;
74648;SDS011;63168;49.280;7.214;2023-04-24T12:52:41;1.35;;;0.93;;
74648;SDS011;63168;49.280;7.214;2023-04-24T12:55:07;1.63;;;0.80;;
74648;SDS011;63168;49.280;7.214;2023-04-24T12:57:35;1.73;;;0.82;;
74648;SDS011;63168;49.280;7.214;2023-04-24T13:00:02;1.98;;;1.00;;
74648;SDS011;63168;49.280;7.214;2023-04-24T13:02:30;2.03;;;1.00;;
74648;SDS011;63168;49.280;7.214;2023-04-24T13:04:56;1.70;;;0.90;;
74648;SDS011;63168;49.280;7.214;2023-04-24T13:07:22;1.27;;;0.80;;
74648;SDS011;63168;49.280;7.214;2023-04-24T13:09:48;1.50;;;0.95;;
74648;SDS011;63168;49.280;7.214;2023-04-24T13:12:15;1.98;;;0.90;;
74648;SDS011;63168;49.280;7.214;2023-04-24T13:14:42;1.30;;;0.88;;
74648;SDS011;63168;49.280;7.214;2023-04-24T13:17:07;1.63;;;1.00;;
74648;SDS011;63168;49.280;7.214;2023-04-24T13:19:35;1.33;;;0.90;;
74648;SDS011;63168;49.280;7.214;2023-04-24T13:22:01;2.00;;;0.90;;
74648;SDS011;63168;49.280;7.214;2023-04-24T13:24:27;1.15;;;0.80;;
74648;SDS011;63168;49.280;7.214;2023-04-24T13:26:53;1.50;;;1.00;;
74648;SDS011;63168;49.280;7.214;2023-04-24T13:29:18;1.75;;;0.88;;
74648;SDS011;63168;49.280;7.214;2023-04-24T13:31:46;1.45;;;0.82;;
74648;SDS011;63168;49.280;7.214;2023-04-24T13:34:12;1.80;;;0.90;;
74648;SDS011;63168;49.280;7.214;2023-04-24T13:36:37;1.63;;;0.90;;
74648;SDS011;63168;49.280;7.214;2023-04-24T13:39:03;1.60;;;0.90;;
74648;SDS011;63168;49.280;7.214;2023-04-24T13:41:30;1.42;;;0.80;;
74648;SDS011;63168;49.280;7.214;2023-04-24T13:43:57;1.35;;;0.85;;
74648;SDS011;63168;49.280;7.214;2023-04-24T13:46:23;1.60;;;0.90;;
74648;SDS011;63168;49.280;7.214;2023-04-24T13:48:50;1.27;;;0.80;;
74648;SDS011;63168;49.280;7.214;2023-04-24T13:51:16;1.80;;;0.93;;
74648;SDS011;63168;49.280;7.214;2023-04-24T13:53:41;1.35;;;0.85;;
74648;SDS011;63168;49.280;7.214;2023-04-24T13:56:07;1.53;;;0.87;;
74648;SDS011;63168;49.280;7.214;2023-04-24T13:58:33;1.42;;;0.90;;
74648;SDS011;63168;49.280;7.214;2023-04-24T14:00:58;1.80;;;0.93;;
74648;SDS011;63168;49.280;7.214;2023-04-24T14:03:24;1.67;;;0.83;;
74648;SDS011;63168;49.280;7.214;2023-04-24T14:05:51;1.97;;;1.00;;
74648;SDS011;63168;49.280;7.214;2023-04-24T14:08:16;1.30;;;0.73;;
74648;SDS011;63168;49.280;7.214;2023-04-24T14:10:42;1.80;;;0.97;;
74648;SDS011;63168;49.280;7.214;2023-04-24T14:13:07;1.70;;;0.90;;
74648;SDS011;63168;49.280;7.214;2023-04-24T14:15:33;1.50;;;0.90;;
74648;SDS011;63168;49.280;7.214;2023-04-24T14:18:00;1.65;;;0.90;;
74648;SDS011;63168;49.280;7.214;2023-04-24T14:20:25;1.40;;;0.90;;
74648;SDS011;63168;49.280;7.214;2023-04-24T14:22:52;1.63;;;0.80;;
74648;SDS011;63168;49.280;7.214;2023-04-24T14:25:18;1.85;;;1.00;;
74648;SDS011;63168;49.280;7.214;2023-04-24T14:27:43;1.80;;;0.90;;
74648;SDS011;63168;49.280;7.214;2023-04-24T14:30:09;1.67;;;1.00;;
74648;SDS011;63168;49.280;7.214;2023-04-24T14:32:35;1.27;;;0.80;;
74648;SDS011;63168;49.280;7.214;2023-04-24T14:35:01;1.70;;;0.80;;
74648;SDS011;63168;49.280;7.214;2023-04-24T14:37:26;1.20;;;0.80;;
74648;SDS011;63168;49.280;7.214;2023-04-24T14:39:53;1.43;;;0.80;;
74648;SDS011;63168;49.280;7.214;2023-04-24T14:42:18;1.60;;;0.90;;